Oteneagen, Minnesota
Current Conditions -  °F | °C
As of 5:33 PM on Saturday 20 Dec 2014 (Local Time) from KFOZ Reporting Station
Unknown Precip Unknown Precip  
Wind Chill: 24°   Ceiling: 600
Heat Index: 30°   Visibility: 4mi
Dew Point: 28°   Wind: 6mph
Humidity: 93%   Direction: 180°S
Pressure: 30"   Gusts: NA
Location:  47.4603°N, 94.029°W
Report Text: KFOZ 202333Z AUTO 18005KT 4SM UP OVC006 M01/M02 A3000 RMK AO2
Loading
Personal Weather Stations






























Interactive Weather Map New forecast layout! Learn more

10-Day Weather Forecast

Advertisements
Track Severe Weather on mobile